sensor_id;sensor_type;location;lat;lon;timestamp;P1;durP1;ratioP1;P2;durP2;ratioP2
15567;SDS011;7885;42.596;23.044;2023-11-21T00:00:00;190.53;;;95.70;;
15567;SDS011;7885;42.596;23.044;2023-11-21T00:02:28;43.33;;;25.23;;
15567;SDS011;7885;42.596;23.044;2023-11-21T00:04:56;95.47;;;50.13;;
15567;SDS011;7885;42.596;23.044;2023-11-21T00:07:22;110.87;;;64.67;;
15567;SDS011;7885;42.596;23.044;2023-11-21T00:09:49;76.67;;;43.77;;
15567;SDS011;7885;42.596;23.044;2023-11-21T00:12:16;36.80;;;20.83;;
15567;SDS011;7885;42.596;23.044;2023-11-21T00:14:42;42.80;;;26.07;;
15567;SDS011;7885;42.596;23.044;2023-11-21T00:17:09;61.00;;;37.17;;
15567;SDS011;7885;42.596;23.044;2023-11-21T00:22:59;79.57;;;46.93;;
15567;SDS011;7885;42.596;23.044;2023-11-21T00:25:27;64.67;;;42.77;;
15567;SDS011;7885;42.596;23.044;2023-11-21T00:27:54;66.83;;;39.63;;
15567;SDS011;7885;42.596;23.044;2023-11-21T00:30:20;60.70;;;39.83;;
15567;SDS011;7885;42.596;23.044;2023-11-21T00:32:47;60.13;;;38.60;;
15567;SDS011;7885;42.596;23.044;2023-11-21T00:35:14;73.83;;;41.10;;
15567;SDS011;7885;42.596;23.044;2023-11-21T00:37:41;74.07;;;42.83;;
15567;SDS011;7885;42.596;23.044;2023-11-21T00:40:09;66.50;;;41.20;;
15567;SDS011;7885;42.596;23.044;2023-11-21T00:42:37;66.73;;;41.57;;
15567;SDS011;7885;42.596;23.044;2023-11-21T00:45:04;63.70;;;41.43;;
15567;SDS011;7885;42.596;23.044;2023-11-21T00:47:32;67.43;;;43.70;;
15567;SDS011;7885;42.596;23.044;2023-11-21T00:49:59;71.40;;;43.63;;
15567;SDS011;7885;42.596;23.044;2023-11-21T00:52:25;73.23;;;42.47;;
15567;SDS011;7885;42.596;23.044;2023-11-21T00:54:52;60.77;;;36.23;;
15567;SDS011;7885;42.596;23.044;2023-11-21T00:57:20;32.77;;;19.93;;
15567;SDS011;7885;42.596;23.044;2023-11-21T00:59:47;49.80;;;31.23;;
15567;SDS011;7885;42.596;23.044;2023-11-21T01:02:13;49.80;;;31.83;;
15567;SDS011;7885;42.596;23.044;2023-11-21T01:04:40;49.37;;;33.10;;
15567;SDS011;7885;42.596;23.044;2023-11-21T01:07:07;38.70;;;22.57;;
15567;SDS011;7885;42.596;23.044;2023-11-21T01:09:34;39.83;;;20.23;;
15567;SDS011;7885;42.596;23.044;2023-11-21T01:12:01;32.27;;;18.17;;
15567;SDS011;7885;42.596;23.044;2023-11-21T01:14:29;43.47;;;24.53;;
15567;SDS011;7885;42.596;23.044;2023-11-21T01:16:55;48.60;;;26.20;;
15567;SDS011;7885;42.596;23.044;2023-11-21T01:19:22;56.20;;;32.60;;
15567;SDS011;7885;42.596;23.044;2023-11-21T01:21:49;60.60;;;36.40;;
15567;SDS011;7885;42.596;23.044;2023-11-21T01:24:17;58.90;;;34.37;;
15567;SDS011;7885;42.596;23.044;2023-11-21T01:26:43;61.13;;;36.90;;
15567;SDS011;7885;42.596;23.044;2023-11-21T01:29:11;68.80;;;42.70;;
15567;SDS011;7885;42.596;23.044;2023-11-21T01:31:39;81.50;;;49.90;;
15567;SDS011;7885;42.596;23.044;2023-11-21T01:34:06;76.33;;;46.40;;
15567;SDS011;7885;42.596;23.044;2023-11-21T01:36:33;89.77;;;53.00;;
15567;SDS011;7885;42.596;23.044;2023-11-21T01:39:00;81.67;;;52.37;;
15567;SDS011;7885;42.596;23.044;2023-11-21T01:44:55;76.23;;;46.33;;
15567;SDS011;7885;42.596;23.044;2023-11-21T01:47:23;78.53;;;48.30;;
15567;SDS011;7885;42.596;23.044;2023-11-21T01:49:49;77.83;;;48.13;;
15567;SDS011;7885;42.596;23.044;2023-11-21T01:52:16;80.60;;;50.30;;
15567;SDS011;7885;42.596;23.044;2023-11-21T01:54:43;78.10;;;49.77;;
15567;SDS011;7885;42.596;23.044;2023-11-21T01:57:10;80.00;;;49.60;;
15567;SDS011;7885;42.596;23.044;2023-11-21T01:59:37;72.40;;;46.97;;
15567;SDS011;7885;42.596;23.044;2023-11-21T02:02:04;76.27;;;47.77;;
15567;SDS011;7885;42.596;23.044;2023-11-21T02:04:34;67.83;;;45.13;;
15567;SDS011;7885;42.596;23.044;2023-11-21T02:07:01;76.73;;;46.73;;
15567;SDS011;7885;42.596;23.044;2023-11-21T02:09:30;62.77;;;42.20;;
15567;SDS011;7885;42.596;23.044;2023-11-21T02:11:58;68.30;;;42.20;;
15567;SDS011;7885;42.596;23.044;2023-11-21T02:14:25;80.60;;;50.90;;
15567;SDS011;7885;42.596;23.044;2023-11-21T02:16:53;75.90;;;47.53;;
15567;SDS011;7885;42.596;23.044;2023-11-21T02:19:21;78.43;;;43.93;;
15567;SDS011;7885;42.596;23.044;2023-11-21T02:21:52;74.97;;;46.33;;
15567;SDS011;7885;42.596;23.044;2023-11-21T02:24:21;74.73;;;44.47;;
15567;SDS011;7885;42.596;23.044;2023-11-21T02:26:48;69.23;;;43.43;;
15567;SDS011;7885;42.596;23.044;2023-11-21T02:29:16;69.97;;;43.47;;
15567;SDS011;7885;42.596;23.044;2023-11-21T02:31:43;78.03;;;44.10;;
15567;SDS011;7885;42.596;23.044;2023-11-21T02:34:14;80.57;;;48.17;;
15567;SDS011;7885;42.596;23.044;2023-11-21T02:36:40;80.27;;;46.50;;
15567;SDS011;7885;42.596;23.044;2023-11-21T02:39:08;64.37;;;37.33;;
15567;SDS011;7885;42.596;23.044;2023-11-21T02:41:37;53.90;;;34.93;;
15567;SDS011;7885;42.596;23.044;2023-11-21T02:44:04;65.33;;;42.40;;
15567;SDS011;7885;42.596;23.044;2023-11-21T02:46:31;70.90;;;43.70;;
15567;SDS011;7885;42.596;23.044;2023-11-21T02:48:59;70.43;;;42.83;;
15567;SDS011;7885;42.596;23.044;2023-11-21T02:51:26;60.77;;;39.07;;
15567;SDS011;7885;42.596;23.044;2023-11-21T02:53:52;66.57;;;39.87;;
15567;SDS011;7885;42.596;23.044;2023-11-21T02:56:19;67.60;;;39.77;;
15567;SDS011;7885;42.596;23.044;2023-11-21T02:58:47;46.80;;;31.77;;
15567;SDS011;7885;42.596;23.044;2023-11-21T03:01:14;50.63;;;31.93;;
15567;SDS011;7885;42.596;23.044;2023-11-21T03:03:42;54.47;;;37.60;;
15567;SDS011;7885;42.596;23.044;2023-11-21T03:06:08;63.30;;;39.67;;
15567;SDS011;7885;42.596;23.044;2023-11-21T03:08:35;53.17;;;32.30;;
15567;SDS011;7885;42.596;23.044;2023-11-21T03:11:02;49.90;;;33.57;;
15567;SDS011;7885;42.596;23.044;2023-11-21T03:13:29;61.03;;;35.73;;
15567;SDS011;7885;42.596;23.044;2023-11-21T03:15:57;67.47;;;41.50;;
15567;SDS011;7885;42.596;23.044;2023-11-21T03:18:24;74.13;;;45.30;;
15567;SDS011;7885;42.596;23.044;2023-11-21T03:20:51;73.23;;;43.90;;
15567;SDS011;7885;42.596;23.044;2023-11-21T03:23:18;54.80;;;35.57;;
15567;SDS011;7885;42.596;23.044;2023-11-21T03:25:45;67.57;;;42.97;;
15567;SDS011;7885;42.596;23.044;2023-11-21T03:28:12;59.77;;;38.57;;
15567;SDS011;7885;42.596;23.044;2023-11-21T03:30:39;67.97;;;40.97;;
15567;SDS011;7885;42.596;23.044;2023-11-21T03:33:07;50.57;;;33.23;;
15567;SDS011;7885;42.596;23.044;2023-11-21T03:35:34;48.60;;;31.00;;
15567;SDS011;7885;42.596;23.044;2023-11-21T03:38:01;47.03;;;31.53;;
15567;SDS011;7885;42.596;23.044;2023-11-21T03:40:28;75.77;;;45.93;;
15567;SDS011;7885;42.596;23.044;2023-11-21T03:42:55;43.10;;;29.63;;
15567;SDS011;7885;42.596;23.044;2023-11-21T03:45:21;45.37;;;28.67;;
15567;SDS011;7885;42.596;23.044;2023-11-21T03:47:48;46.77;;;30.83;;
15567;SDS011;7885;42.596;23.044;2023-11-21T03:50:16;46.57;;;28.57;;
15567;SDS011;7885;42.596;23.044;2023-11-21T03:52:43;39.83;;;27.27;;
15567;SDS011;7885;42.596;23.044;2023-11-21T03:55:09;39.13;;;27.10;;
15567;SDS011;7885;42.596;23.044;2023-11-21T03:57:36;48.73;;;30.97;;
15567;SDS011;7885;42.596;23.044;2023-11-21T04:00:03;42.47;;;28.63;;
15567;SDS011;7885;42.596;23.044;2023-11-21T04:02:33;40.43;;;26.40;;
15567;SDS011;7885;42.596;23.044;2023-11-21T04:05:01;49.60;;;38.40;;
15567;SDS011;7885;42.596;23.044;2023-11-21T04:07:31;46.03;;;35.30;;
15567;SDS011;7885;42.596;23.044;2023-11-21T04:09:58;51.87;;;33.20;;
15567;SDS011;7885;42.596;23.044;2023-11-21T04:12:25;46.07;;;29.83;;
15567;SDS011;7885;42.596;23.044;2023-11-21T04:14:51;46.97;;;29.90;;
15567;SDS011;7885;42.596;23.044;2023-11-21T04:17:18;45.80;;;33.63;;
15567;SDS011;7885;42.596;23.044;2023-11-21T04:19:45;54.07;;;38.33;;
15567;SDS011;7885;42.596;23.044;2023-11-21T04:22:12;50.67;;;33.17;;
15567;SDS011;7885;42.596;23.044;2023-11-21T04:24:40;49.27;;;34.70;;
15567;SDS011;7885;42.596;23.044;2023-11-21T04:27:06;58.07;;;40.53;;
15567;SDS011;7885;42.596;23.044;2023-11-21T04:29:33;64.77;;;41.33;;
15567;SDS011;7885;42.596;23.044;2023-11-21T04:32:00;57.20;;;38.87;;
15567;SDS011;7885;42.596;23.044;2023-11-21T04:34:28;49.57;;;34.50;;
15567;SDS011;7885;42.596;23.044;2023-11-21T04:36:56;47.93;;;31.60;;
15567;SDS011;7885;42.596;23.044;2023-11-21T04:39:22;51.87;;;31.13;;
15567;SDS011;7885;42.596;23.044;2023-11-21T04:41:51;56.87;;;40.27;;
15567;SDS011;7885;42.596;23.044;2023-11-21T04:44:17;46.40;;;32.20;;
15567;SDS011;7885;42.596;23.044;2023-11-21T04:46:44;52.90;;;36.73;;
15567;SDS011;7885;42.596;23.044;2023-11-21T04:49:11;53.30;;;36.37;;
15567;SDS011;7885;42.596;23.044;2023-11-21T04:51:37;52.03;;;35.47;;
15567;SDS011;7885;42.596;23.044;2023-11-21T04:54:04;50.20;;;33.77;;
15567;SDS011;7885;42.596;23.044;2023-11-21T04:56:31;50.37;;;30.63;;
15567;SDS011;7885;42.596;23.044;2023-11-21T04:58:59;53.30;;;30.87;;
15567;SDS011;7885;42.596;23.044;2023-11-21T05:01:26;85.30;;;48.87;;
15567;SDS011;7885;42.596;23.044;2023-11-21T05:03:53;57.97;;;36.77;;
15567;SDS011;7885;42.596;23.044;2023-11-21T05:06:20;64.70;;;40.37;;
15567;SDS011;7885;42.596;23.044;2023-11-21T05:08:47;70.70;;;42.47;;
15567;SDS011;7885;42.596;23.044;2023-11-21T05:11:22;67.33;;;42.20;;
15567;SDS011;7885;42.596;23.044;2023-11-21T05:13:50;66.30;;;39.30;;
15567;SDS011;7885;42.596;23.044;2023-11-21T05:16:18;52.73;;;36.27;;
15567;SDS011;7885;42.596;23.044;2023-11-21T05:18:45;41.37;;;31.00;;
15567;SDS011;7885;42.596;23.044;2023-11-21T05:21:12;47.53;;;33.00;;
15567;SDS011;7885;42.596;23.044;2023-11-21T05:23:40;44.07;;;31.67;;
15567;SDS011;7885;42.596;23.044;2023-11-21T05:26:06;64.63;;;41.13;;
15567;SDS011;7885;42.596;23.044;2023-11-21T05:28:33;63.43;;;43.93;;
15567;SDS011;7885;42.596;23.044;2023-11-21T05:31:00;71.40;;;43.30;;
15567;SDS011;7885;42.596;23.044;2023-11-21T05:33:28;68.07;;;43.70;;
15567;SDS011;7885;42.596;23.044;2023-11-21T05:35:55;64.87;;;40.63;;
15567;SDS011;7885;42.596;23.044;2023-11-21T05:38:21;73.80;;;45.90;;
15567;SDS011;7885;42.596;23.044;2023-11-21T05:40:48;55.30;;;38.30;;
15567;SDS011;7885;42.596;23.044;2023-11-21T05:43:15;56.77;;;38.37;;
15567;SDS011;7885;42.596;23.044;2023-11-21T05:45:41;58.57;;;38.57;;
15567;SDS011;7885;42.596;23.044;2023-11-21T05:48:08;62.23;;;34.97;;
15567;SDS011;7885;42.596;23.044;2023-11-21T05:50:36;61.27;;;38.37;;
15567;SDS011;7885;42.596;23.044;2023-11-21T05:53:03;67.90;;;42.13;;
15567;SDS011;7885;42.596;23.044;2023-11-21T05:55:30;78.50;;;47.43;;
15567;SDS011;7885;42.596;23.044;2023-11-21T05:57:57;67.97;;;44.27;;
15567;SDS011;7885;42.596;23.044;2023-11-21T06:00:25;64.30;;;43.60;;
15567;SDS011;7885;42.596;23.044;2023-11-21T06:02:52;71.23;;;44.23;;
15567;SDS011;7885;42.596;23.044;2023-11-21T06:05:22;74.57;;;42.23;;
15567;SDS011;7885;42.596;23.044;2023-11-21T06:07:51;59.23;;;38.27;;
15567;SDS011;7885;42.596;23.044;2023-11-21T06:10:19;63.07;;;40.73;;
15567;SDS011;7885;42.596;23.044;2023-11-21T06:12:46;56.00;;;36.80;;
15567;SDS011;7885;42.596;23.044;2023-11-21T06:15:13;47.97;;;31.10;;
15567;SDS011;7885;42.596;23.044;2023-11-21T06:17:40;56.63;;;38.77;;
15567;SDS011;7885;42.596;23.044;2023-11-21T06:20:08;60.37;;;38.57;;
15567;SDS011;7885;42.596;23.044;2023-11-21T06:22:39;59.40;;;39.73;;
15567;SDS011;7885;42.596;23.044;2023-11-21T06:25:09;61.20;;;39.03;;
15567;SDS011;7885;42.596;23.044;2023-11-21T06:27:38;74.80;;;46.30;;
15567;SDS011;7885;42.596;23.044;2023-11-21T06:30:06;85.20;;;53.10;;
15567;SDS011;7885;42.596;23.044;2023-11-21T06:32:34;64.37;;;42.87;;
15567;SDS011;7885;42.596;23.044;2023-11-21T06:35:01;71.27;;;43.97;;
15567;SDS011;7885;42.596;23.044;2023-11-21T06:37:29;58.17;;;39.57;;
15567;SDS011;7885;42.596;23.044;2023-11-21T06:39:57;69.00;;;43.13;;
15567;SDS011;7885;42.596;23.044;2023-11-21T06:42:25;70.10;;;46.07;;
15567;SDS011;7885;42.596;23.044;2023-11-21T06:44:54;84.53;;;48.73;;
15567;SDS011;7885;42.596;23.044;2023-11-21T06:47:22;84.43;;;54.07;;
15567;SDS011;7885;42.596;23.044;2023-11-21T06:49:50;71.43;;;45.40;;
15567;SDS011;7885;42.596;23.044;2023-11-21T06:52:17;69.37;;;45.33;;
15567;SDS011;7885;42.596;23.044;2023-11-21T06:54:44;84.63;;;51.90;;
15567;SDS011;7885;42.596;23.044;2023-11-21T06:57:12;80.13;;;49.67;;
15567;SDS011;7885;42.596;23.044;2023-11-21T06:59:40;78.10;;;50.27;;
15567;SDS011;7885;42.596;23.044;2023-11-21T07:02:07;82.87;;;49.37;;
15567;SDS011;7885;42.596;23.044;2023-11-21T07:04:34;75.73;;;50.53;;
15567;SDS011;7885;42.596;23.044;2023-11-21T07:07:01;78.17;;;52.77;;
15567;SDS011;7885;42.596;23.044;2023-11-21T07:09:28;82.53;;;52.13;;
15567;SDS011;7885;42.596;23.044;2023-11-21T07:11:56;85.97;;;54.47;;
15567;SDS011;7885;42.596;23.044;2023-11-21T07:14:22;86.83;;;52.97;;
15567;SDS011;7885;42.596;23.044;2023-11-21T07:16:50;67.20;;;48.40;;
15567;SDS011;7885;42.596;23.044;2023-11-21T07:19:18;91.40;;;53.53;;
15567;SDS011;7885;42.596;23.044;2023-11-21T07:21:44;88.43;;;60.63;;
15567;SDS011;7885;42.596;23.044;2023-11-21T07:24:11;93.97;;;58.50;;
15567;SDS011;7885;42.596;23.044;2023-11-21T07:26:38;80.90;;;55.20;;
15567;SDS011;7885;42.596;23.044;2023-11-21T07:29:05;82.00;;;52.20;;
15567;SDS011;7885;42.596;23.044;2023-11-21T07:31:32;80.17;;;53.40;;
15567;SDS011;7885;42.596;23.044;2023-11-21T07:34:01;81.83;;;54.93;;
15567;SDS011;7885;42.596;23.044;2023-11-21T07:36:28;88.83;;;58.70;;
15567;SDS011;7885;42.596;23.044;2023-11-21T07:38:54;96.13;;;59.90;;
15567;SDS011;7885;42.596;23.044;2023-11-21T07:41:21;84.93;;;55.33;;
15567;SDS011;7885;42.596;23.044;2023-11-21T07:43:48;76.93;;;47.10;;
15567;SDS011;7885;42.596;23.044;2023-11-21T07:46:14;77.57;;;45.50;;
15567;SDS011;7885;42.596;23.044;2023-11-21T07:48:41;81.50;;;47.70;;
15567;SDS011;7885;42.596;23.044;2023-11-21T07:51:10;83.30;;;47.70;;
15567;SDS011;7885;42.596;23.044;2023-11-21T07:53:38;85.77;;;52.33;;
15567;SDS011;7885;42.596;23.044;2023-11-21T07:56:05;77.17;;;48.70;;
15567;SDS011;7885;42.596;23.044;2023-11-21T07:58:34;86.87;;;49.47;;
15567;SDS011;7885;42.596;23.044;2023-11-21T08:01:00;74.20;;;44.03;;
15567;SDS011;7885;42.596;23.044;2023-11-21T08:03:27;66.97;;;42.83;;
15567;SDS011;7885;42.596;23.044;2023-11-21T08:05:55;65.00;;;41.43;;
15567;SDS011;7885;42.596;23.044;2023-11-21T08:08:24;63.20;;;40.27;;
15567;SDS011;7885;42.596;23.044;2023-11-21T08:10:51;56.37;;;39.33;;
15567;SDS011;7885;42.596;23.044;2023-11-21T08:13:21;64.13;;;39.27;;
15567;SDS011;7885;42.596;23.044;2023-11-21T08:15:48;70.13;;;40.07;;
15567;SDS011;7885;42.596;23.044;2023-11-21T08:18:15;66.60;;;42.67;;
15567;SDS011;7885;42.596;23.044;2023-11-21T08:20:42;79.17;;;48.00;;
15567;SDS011;7885;42.596;23.044;2023-11-21T08:23:12;78.00;;;48.13;;
15567;SDS011;7885;42.596;23.044;2023-11-21T08:25:41;69.07;;;44.13;;
15567;SDS011;7885;42.596;23.044;2023-11-21T08:28:08;55.77;;;39.37;;
15567;SDS011;7885;42.596;23.044;2023-11-21T08:30:35;60.07;;;36.93;;
15567;SDS011;7885;42.596;23.044;2023-11-21T08:33:02;58.13;;;35.27;;
15567;SDS011;7885;42.596;23.044;2023-11-21T08:35:29;55.93;;;35.60;;
15567;SDS011;7885;42.596;23.044;2023-11-21T08:37:56;61.73;;;42.43;;
15567;SDS011;7885;42.596;23.044;2023-11-21T08:40:22;54.07;;;35.27;;
15567;SDS011;7885;42.596;23.044;2023-11-21T08:42:51;54.60;;;35.87;;
15567;SDS011;7885;42.596;23.044;2023-11-21T08:45:18;60.13;;;36.80;;
15567;SDS011;7885;42.596;23.044;2023-11-21T08:47:46;51.27;;;32.27;;
15567;SDS011;7885;42.596;23.044;2023-11-21T08:50:12;42.00;;;26.27;;
15567;SDS011;7885;42.596;23.044;2023-11-21T08:52:40;33.67;;;20.27;;
15567;SDS011;7885;42.596;23.044;2023-11-21T08:55:07;31.60;;;18.10;;
15567;SDS011;7885;42.596;23.044;2023-11-21T08:57:37;24.07;;;14.27;;
15567;SDS011;7885;42.596;23.044;2023-11-21T09:00:07;28.37;;;15.40;;
15567;SDS011;7885;42.596;23.044;2023-11-21T09:02:36;31.93;;;16.00;;
15567;SDS011;7885;42.596;23.044;2023-11-21T09:05:04;27.87;;;15.93;;
15567;SDS011;7885;42.596;23.044;2023-11-21T09:07:31;30.90;;;16.63;;
15567;SDS011;7885;42.596;23.044;2023-11-21T09:09:58;34.40;;;20.00;;
15567;SDS011;7885;42.596;23.044;2023-11-21T09:12:25;31.43;;;17.67;;
15567;SDS011;7885;42.596;23.044;2023-11-21T09:14:51;28.37;;;19.30;;
15567;SDS011;7885;42.596;23.044;2023-11-21T09:17:19;29.13;;;19.57;;
15567;SDS011;7885;42.596;23.044;2023-11-21T09:19:46;29.43;;;17.70;;
15567;SDS011;7885;42.596;23.044;2023-11-21T09:22:16;30.43;;;18.63;;
15567;SDS011;7885;42.596;23.044;2023-11-21T09:24:43;30.77;;;18.77;;
15567;SDS011;7885;42.596;23.044;2023-11-21T09:27:09;28.30;;;16.97;;
15567;SDS011;7885;42.596;23.044;2023-11-21T09:29:36;27.17;;;16.13;;
15567;SDS011;7885;42.596;23.044;2023-11-21T09:32:03;24.23;;;14.47;;
15567;SDS011;7885;42.596;23.044;2023-11-21T09:34:33;25.47;;;14.77;;
15567;SDS011;7885;42.596;23.044;2023-11-21T09:37:01;35.83;;;20.33;;
15567;SDS011;7885;42.596;23.044;2023-11-21T09:39:30;37.13;;;22.50;;
15567;SDS011;7885;42.596;23.044;2023-11-21T09:41:59;26.53;;;16.57;;
15567;SDS011;7885;42.596;23.044;2023-11-21T09:44:36;27.23;;;17.57;;
15567;SDS011;7885;42.596;23.044;2023-11-21T09:47:14;37.63;;;24.70;;
15567;SDS011;7885;42.596;23.044;2023-11-21T09:49:43;42.43;;;26.00;;
15567;SDS011;7885;42.596;23.044;2023-11-21T09:52:15;39.87;;;26.10;;
15567;SDS011;7885;42.596;23.044;2023-11-21T09:54:50;38.83;;;25.67;;
15567;SDS011;7885;42.596;23.044;2023-11-21T09:57:18;36.20;;;26.03;;
15567;SDS011;7885;42.596;23.044;2023-11-21T09:59:46;46.27;;;30.77;;
15567;SDS011;7885;42.596;23.044;2023-11-21T10:02:15;49.03;;;32.30;;
15567;SDS011;7885;42.596;23.044;2023-11-21T10:04:45;42.03;;;26.00;;
15567;SDS011;7885;42.596;23.044;2023-11-21T10:07:13;38.00;;;22.67;;
15567;SDS011;7885;42.596;23.044;2023-11-21T10:09:42;27.27;;;17.07;;
15567;SDS011;7885;42.596;23.044;2023-11-21T10:12:09;29.37;;;17.90;;
15567;SDS011;7885;42.596;23.044;2023-11-21T10:14:38;23.83;;;16.13;;
15567;SDS011;7885;42.596;23.044;2023-11-21T10:17:09;27.97;;;16.50;;
15567;SDS011;7885;42.596;23.044;2023-11-21T10:19:37;22.73;;;15.77;;
15567;SDS011;7885;42.596;23.044;2023-11-21T10:22:06;29.07;;;18.63;;
15567;SDS011;7885;42.596;23.044;2023-11-21T10:24:33;29.13;;;21.37;;
15567;SDS011;7885;42.596;23.044;2023-11-21T10:27:02;30.37;;;21.83;;
15567;SDS011;7885;42.596;23.044;2023-11-21T10:29:29;39.43;;;22.27;;
15567;SDS011;7885;42.596;23.044;2023-11-21T10:32:00;31.37;;;19.60;;
15567;SDS011;7885;42.596;23.044;2023-11-21T10:34:28;36.17;;;20.00;;
15567;SDS011;7885;42.596;23.044;2023-11-21T10:36:55;31.07;;;21.63;;
15567;SDS011;7885;42.596;23.044;2023-11-21T10:39:24;35.00;;;22.93;;
15567;SDS011;7885;42.596;23.044;2023-11-21T10:41:55;32.80;;;24.83;;
15567;SDS011;7885;42.596;23.044;2023-11-21T10:44:22;36.67;;;24.07;;
15567;SDS011;7885;42.596;23.044;2023-11-21T10:46:50;33.13;;;19.60;;
15567;SDS011;7885;42.596;23.044;2023-11-21T10:49:21;33.83;;;22.63;;
15567;SDS011;7885;42.596;23.044;2023-11-21T10:51:49;38.40;;;24.00;;
15567;SDS011;7885;42.596;23.044;2023-11-21T10:54:21;27.17;;;16.97;;
15567;SDS011;7885;42.596;23.044;2023-11-21T10:56:50;14.77;;;8.90;;
15567;SDS011;7885;42.596;23.044;2023-11-21T10:59:19;18.00;;;9.60;;
15567;SDS011;7885;42.596;23.044;2023-11-21T11:01:50;16.67;;;10.50;;
15567;SDS011;7885;42.596;23.044;2023-11-21T11:04:18;19.03;;;10.30;;
15567;SDS011;7885;42.596;23.044;2023-11-21T11:06:48;13.47;;;7.37;;
15567;SDS011;7885;42.596;23.044;2023-11-21T11:09:19;5.47;;;2.90;;
15567;SDS011;7885;42.596;23.044;2023-11-21T11:11:46;7.47;;;3.20;;
15567;SDS011;7885;42.596;23.044;2023-11-21T11:14:15;8.90;;;3.67;;
15567;SDS011;7885;42.596;23.044;2023-11-21T11:16:44;7.70;;;3.70;;
15567;SDS011;7885;42.596;23.044;2023-11-21T11:19:11;5.17;;;2.60;;
15567;SDS011;7885;42.596;23.044;2023-11-21T11:21:43;4.30;;;2.67;;
15567;SDS011;7885;42.596;23.044;2023-11-21T11:24:27;10.57;;;5.27;;
15567;SDS011;7885;42.596;23.044;2023-11-21T11:27:11;12.77;;;5.90;;
15567;SDS011;7885;42.596;23.044;2023-11-21T11:29:55;7.63;;;4.20;;
15567;SDS011;7885;42.596;23.044;2023-11-21T11:32:35;10.27;;;5.57;;
15567;SDS011;7885;42.596;23.044;2023-11-21T11:35:16;21.13;;;11.37;;
15567;SDS011;7885;42.596;23.044;2023-11-21T11:37:48;13.90;;;8.10;;
15567;SDS011;7885;42.596;23.044;2023-11-21T11:40:14;11.43;;;7.03;;
15567;SDS011;7885;42.596;23.044;2023-11-21T11:42:54;10.50;;;6.73;;
15567;SDS011;7885;42.596;23.044;2023-11-21T11:45:24;10.80;;;7.50;;
15567;SDS011;7885;42.596;23.044;2023-11-21T11:47:59;7.60;;;4.23;;
15567;SDS011;7885;42.596;23.044;2023-11-21T11:50:26;7.50;;;4.97;;
15567;SDS011;7885;42.596;23.044;2023-11-21T11:52:53;8.40;;;4.10;;
15567;SDS011;7885;42.596;23.044;2023-11-21T11:55:22;10.97;;;6.30;;
15567;SDS011;7885;42.596;23.044;2023-11-21T11:57:51;13.13;;;9.00;;
15567;SDS011;7885;42.596;23.044;2023-11-21T12:00:21;11.57;;;7.43;;
15567;SDS011;7885;42.596;23.044;2023-11-21T12:02:52;9.97;;;6.30;;
15567;SDS011;7885;42.596;23.044;2023-11-21T12:05:22;11.40;;;6.40;;
15567;SDS011;7885;42.596;23.044;2023-11-21T12:07:49;10.67;;;6.07;;
15567;SDS011;7885;42.596;23.044;2023-11-21T12:10:18;13.43;;;7.20;;
15567;SDS011;7885;42.596;23.044;2023-11-21T12:12:46;10.17;;;5.90;;
15567;SDS011;7885;42.596;23.044;2023-11-21T12:15:14;8.70;;;5.10;;
15567;SDS011;7885;42.596;23.044;2023-11-21T12:17:41;10.50;;;6.20;;
15567;SDS011;7885;42.596;23.044;2023-11-21T12:20:12;11.13;;;5.80;;
15567;SDS011;7885;42.596;23.044;2023-11-21T12:22:43;9.97;;;5.60;;
15567;SDS011;7885;42.596;23.044;2023-11-21T12:25:13;7.10;;;4.60;;
15567;SDS011;7885;42.596;23.044;2023-11-21T12:27:43;9.03;;;5.60;;
15567;SDS011;7885;42.596;23.044;2023-11-21T12:30:12;11.43;;;5.90;;
15567;SDS011;7885;42.596;23.044;2023-11-21T12:32:40;8.17;;;4.63;;
15567;SDS011;7885;42.596;23.044;2023-11-21T12:35:08;6.90;;;4.83;;
15567;SDS011;7885;42.596;23.044;2023-11-21T12:37:37;11.73;;;5.80;;
15567;SDS011;7885;42.596;23.044;2023-11-21T12:40:05;9.13;;;6.33;;
15567;SDS011;7885;42.596;23.044;2023-11-21T12:42:36;14.63;;;9.97;;
15567;SDS011;7885;42.596;23.044;2023-11-21T12:45:07;13.43;;;8.33;;
15567;SDS011;7885;42.596;23.044;2023-11-21T12:47:39;16.37;;;11.40;;
15567;SDS011;7885;42.596;23.044;2023-11-21T12:50:07;13.30;;;9.97;;
15567;SDS011;7885;42.596;23.044;2023-11-21T12:52:40;18.10;;;13.27;;
15567;SDS011;7885;42.596;23.044;2023-11-21T12:55:09;16.30;;;10.17;;
15567;SDS011;7885;42.596;23.044;2023-11-21T12:57:40;13.77;;;10.23;;
15567;SDS011;7885;42.596;23.044;2023-11-21T13:00:09;12.63;;;9.63;;
15567;SDS011;7885;42.596;23.044;2023-11-21T13:02:41;30.03;;;21.73;;
15567;SDS011;7885;42.596;23.044;2023-11-21T13:05:08;41.73;;;31.23;;
15567;SDS011;7885;42.596;23.044;2023-11-21T13:07:44;52.10;;;40.50;;
15567;SDS011;7885;42.596;23.044;2023-11-21T13:10:12;55.03;;;42.37;;
15567;SDS011;7885;42.596;23.044;2023-11-21T13:12:42;40.23;;;30.03;;
15567;SDS011;7885;42.596;23.044;2023-11-21T13:15:13;46.40;;;33.30;;
15567;SDS011;7885;42.596;23.044;2023-11-21T13:17:42;47.47;;;33.87;;
15567;SDS011;7885;42.596;23.044;2023-11-21T13:20:09;44.53;;;31.90;;
15567;SDS011;7885;42.596;23.044;2023-11-21T13:22:46;45.97;;;32.93;;
15567;SDS011;7885;42.596;23.044;2023-11-21T13:25:14;46.33;;;35.00;;
15567;SDS011;7885;42.596;23.044;2023-11-21T13:27:43;36.40;;;24.60;;
15567;SDS011;7885;42.596;23.044;2023-11-21T13:30:11;35.47;;;23.73;;
15567;SDS011;7885;42.596;23.044;2023-11-21T13:32:41;37.03;;;26.67;;
15567;SDS011;7885;42.596;23.044;2023-11-21T13:35:07;73.43;;;49.20;;
15567;SDS011;7885;42.596;23.044;2023-11-21T13:37:40;66.73;;;43.47;;
15567;SDS011;7885;42.596;23.044;2023-11-21T13:40:09;53.13;;;41.27;;
15567;SDS011;7885;42.596;23.044;2023-11-21T13:42:39;54.20;;;40.63;;
15567;SDS011;7885;42.596;23.044;2023-11-21T13:45:08;46.47;;;34.53;;
15567;SDS011;7885;42.596;23.044;2023-11-21T13:47:35;43.60;;;34.57;;
15567;SDS011;7885;42.596;23.044;2023-11-21T13:50:03;34.40;;;23.27;;
15567;SDS011;7885;42.596;23.044;2023-11-21T13:52:42;32.83;;;26.53;;
15567;SDS011;7885;42.596;23.044;2023-11-21T13:55:11;38.33;;;26.57;;
15567;SDS011;7885;42.596;23.044;2023-11-21T13:57:41;50.63;;;32.27;;
15567;SDS011;7885;42.596;23.044;2023-11-21T14:00:10;35.77;;;20.33;;
15567;SDS011;7885;42.596;23.044;2023-11-21T14:02:58;34.93;;;20.03;;
15567;SDS011;7885;42.596;23.044;2023-11-21T14:05:26;19.97;;;14.67;;
15567;SDS011;7885;42.596;23.044;2023-11-21T14:07:56;20.47;;;12.93;;
15567;SDS011;7885;42.596;23.044;2023-11-21T14:10:29;15.30;;;10.07;;
15567;SDS011;7885;42.596;23.044;2023-11-21T14:13:05;9.73;;;6.67;;
15567;SDS011;7885;42.596;23.044;2023-11-21T14:15:32;9.80;;;7.17;;
15567;SDS011;7885;42.596;23.044;2023-11-21T14:18:03;10.20;;;6.80;;
15567;SDS011;7885;42.596;23.044;2023-11-21T14:20:35;8.57;;;5.60;;
15567;SDS011;7885;42.596;23.044;2023-11-21T14:23:02;6.97;;;4.93;;
15567;SDS011;7885;42.596;23.044;2023-11-21T14:25:32;10.47;;;6.73;;
15567;SDS011;7885;42.596;23.044;2023-11-21T14:28:01;7.17;;;6.03;;
15567;SDS011;7885;42.596;23.044;2023-11-21T14:30:29;6.47;;;5.73;;
15567;SDS011;7885;42.596;23.044;2023-11-21T14:32:57;9.20;;;7.53;;
15567;SDS011;7885;42.596;23.044;2023-11-21T14:35:24;9.30;;;5.30;;